sensor_id;sensor_type;location;lat;lon;timestamp;P1;durP1;ratioP1;P2;durP2;ratioP2
18711;SDS011;9485;49.386;8.674;2023-04-09T00:01:40;6.13;;;4.83;;
18711;SDS011;9485;49.386;8.674;2023-04-09T00:07:01;6.93;;;5.17;;
18711;SDS011;9485;49.386;8.674;2023-04-09T00:12:21;7.43;;;5.27;;
18711;SDS011;9485;49.386;8.674;2023-04-09T00:17:44;8.50;;;5.80;;
18711;SDS011;9485;49.386;8.674;2023-04-09T00:23:05;7.83;;;5.77;;
18711;SDS011;9485;49.386;8.674;2023-04-09T00:28:25;10.33;;;6.23;;
18711;SDS011;9485;49.386;8.674;2023-04-09T00:33:47;8.13;;;5.97;;
18711;SDS011;9485;49.386;8.674;2023-04-09T00:39:08;9.30;;;5.97;;
18711;SDS011;9485;49.386;8.674;2023-04-09T00:44:28;8.23;;;6.07;;
18711;SDS011;9485;49.386;8.674;2023-04-09T00:49:51;8.17;;;5.90;;
18711;SDS011;9485;49.386;8.674;2023-04-09T00:55:11;8.37;;;5.53;;
18711;SDS011;9485;49.386;8.674;2023-04-09T01:00:33;7.00;;;5.30;;
18711;SDS011;9485;49.386;8.674;2023-04-09T01:05:57;9.27;;;6.13;;
18711;SDS011;9485;49.386;8.674;2023-04-09T01:11:28;9.70;;;6.77;;
18711;SDS011;9485;49.386;8.674;2023-04-09T01:17:03;8.30;;;5.90;;
18711;SDS011;9485;49.386;8.674;2023-04-09T01:22:35;8.90;;;5.93;;
18711;SDS011;9485;49.386;8.674;2023-04-09T01:28:18;7.90;;;5.80;;
18711;SDS011;9485;49.386;8.674;2023-04-09T01:33:45;9.97;;;6.87;;
18711;SDS011;9485;49.386;8.674;2023-04-09T01:39:06;9.00;;;6.20;;
18711;SDS011;9485;49.386;8.674;2023-04-09T01:44:29;9.10;;;6.13;;
18711;SDS011;9485;49.386;8.674;2023-04-09T01:49:50;9.27;;;6.67;;
18711;SDS011;9485;49.386;8.674;2023-04-09T01:55:11;9.27;;;6.87;;
18711;SDS011;9485;49.386;8.674;2023-04-09T02:00:42;10.33;;;7.20;;
18711;SDS011;9485;49.386;8.674;2023-04-09T02:06:08;9.77;;;7.70;;
18711;SDS011;9485;49.386;8.674;2023-04-09T02:11:36;12.93;;;7.97;;
18711;SDS011;9485;49.386;8.674;2023-04-09T02:17:02;11.33;;;7.83;;
18711;SDS011;9485;49.386;8.674;2023-04-09T02:22:22;10.50;;;7.43;;
18711;SDS011;9485;49.386;8.674;2023-04-09T02:27:43;11.20;;;7.90;;
18711;SDS011;9485;49.386;8.674;2023-04-09T02:33:05;10.97;;;7.93;;
18711;SDS011;9485;49.386;8.674;2023-04-09T02:38:27;10.07;;;7.10;;
18711;SDS011;9485;49.386;8.674;2023-04-09T02:43:48;13.90;;;9.17;;
18711;SDS011;9485;49.386;8.674;2023-04-09T02:49:10;11.20;;;7.83;;
18711;SDS011;9485;49.386;8.674;2023-04-09T02:54:31;11.63;;;7.63;;
18711;SDS011;9485;49.386;8.674;2023-04-09T02:59:51;10.77;;;7.77;;
18711;SDS011;9485;49.386;8.674;2023-04-09T03:05:13;13.47;;;7.97;;
18711;SDS011;9485;49.386;8.674;2023-04-09T03:10:34;10.57;;;7.20;;
18711;SDS011;9485;49.386;8.674;2023-04-09T03:15:55;10.77;;;6.83;;
18711;SDS011;9485;49.386;8.674;2023-04-09T03:21:17;9.50;;;6.97;;
18711;SDS011;9485;49.386;8.674;2023-04-09T03:26:40;13.20;;;8.87;;
18711;SDS011;9485;49.386;8.674;2023-04-09T03:32:02;12.13;;;8.17;;
18711;SDS011;9485;49.386;8.674;2023-04-09T03:37:25;11.13;;;8.03;;
18711;SDS011;9485;49.386;8.674;2023-04-09T03:42:46;10.67;;;7.73;;
18711;SDS011;9485;49.386;8.674;2023-04-09T03:48:08;11.70;;;8.03;;
18711;SDS011;9485;49.386;8.674;2023-04-09T03:53:30;11.33;;;7.87;;
18711;SDS011;9485;49.386;8.674;2023-04-09T03:58:56;10.50;;;7.60;;
18711;SDS011;9485;49.386;8.674;2023-04-09T04:04:26;10.80;;;7.20;;
18711;SDS011;9485;49.386;8.674;2023-04-09T04:09:50;11.60;;;7.83;;
18711;SDS011;9485;49.386;8.674;2023-04-09T04:15:11;13.40;;;8.70;;
18711;SDS011;9485;49.386;8.674;2023-04-09T04:20:38;12.23;;;8.40;;
18711;SDS011;9485;49.386;8.674;2023-04-09T04:26:07;13.73;;;8.67;;
18711;SDS011;9485;49.386;8.674;2023-04-09T04:31:29;12.40;;;8.57;;
18711;SDS011;9485;49.386;8.674;2023-04-09T04:36:51;11.20;;;7.57;;
18711;SDS011;9485;49.386;8.674;2023-04-09T04:42:13;13.07;;;9.17;;
18711;SDS011;9485;49.386;8.674;2023-04-09T04:47:35;13.43;;;8.87;;
18711;SDS011;9485;49.386;8.674;2023-04-09T04:52:56;12.70;;;9.00;;
18711;SDS011;9485;49.386;8.674;2023-04-09T04:58:23;13.83;;;9.37;;
18711;SDS011;9485;49.386;8.674;2023-04-09T05:03:48;11.97;;;8.43;;
18711;SDS011;9485;49.386;8.674;2023-04-09T05:09:20;14.77;;;9.03;;
18711;SDS011;9485;49.386;8.674;2023-04-09T05:14:52;15.07;;;9.00;;
18711;SDS011;9485;49.386;8.674;2023-04-09T05:20:12;13.23;;;8.93;;
18711;SDS011;9485;49.386;8.674;2023-04-09T05:25:48;13.90;;;9.33;;
18711;SDS011;9485;49.386;8.674;2023-04-09T05:31:18;13.83;;;9.50;;
18711;SDS011;9485;49.386;8.674;2023-04-09T05:36:53;13.00;;;8.80;;
18711;SDS011;9485;49.386;8.674;2023-04-09T05:42:16;14.47;;;9.20;;
18711;SDS011;9485;49.386;8.674;2023-04-09T05:47:46;11.77;;;8.60;;
18711;SDS011;9485;49.386;8.674;2023-04-09T05:53:11;14.27;;;9.10;;
18711;SDS011;9485;49.386;8.674;2023-04-09T05:58:33;10.97;;;8.07;;
18711;SDS011;9485;49.386;8.674;2023-04-09T06:03:56;11.73;;;8.90;;
18711;SDS011;9485;49.386;8.674;2023-04-09T06:09:17;11.43;;;8.40;;
18711;SDS011;9485;49.386;8.674;2023-04-09T06:14:38;10.87;;;7.73;;
18711;SDS011;9485;49.386;8.674;2023-04-09T06:20:00;9.60;;;7.03;;
18711;SDS011;9485;49.386;8.674;2023-04-09T06:25:22;11.43;;;7.53;;
18711;SDS011;9485;49.386;8.674;2023-04-09T06:30:43;12.30;;;8.03;;
18711;SDS011;9485;49.386;8.674;2023-04-09T06:36:06;11.13;;;7.80;;
18711;SDS011;9485;49.386;8.674;2023-04-09T06:41:27;10.73;;;8.17;;
18711;SDS011;9485;49.386;8.674;2023-04-09T06:46:48;10.20;;;7.10;;
18711;SDS011;9485;49.386;8.674;2023-04-09T06:52:10;11.07;;;7.73;;
18711;SDS011;9485;49.386;8.674;2023-04-09T06:57:31;10.47;;;7.93;;
18711;SDS011;9485;49.386;8.674;2023-04-09T07:02:52;11.67;;;7.90;;
18711;SDS011;9485;49.386;8.674;2023-04-09T07:08:15;8.50;;;6.77;;
18711;SDS011;9485;49.386;8.674;2023-04-09T07:13:35;10.57;;;6.90;;
18711;SDS011;9485;49.386;8.674;2023-04-09T07:18:56;11.27;;;8.13;;
18711;SDS011;9485;49.386;8.674;2023-04-09T07:24:19;11.03;;;7.90;;
18711;SDS011;9485;49.386;8.674;2023-04-09T07:29:42;11.10;;;7.80;;
18711;SDS011;9485;49.386;8.674;2023-04-09T07:35:06;10.10;;;7.23;;
18711;SDS011;9485;49.386;8.674;2023-04-09T07:40:31;9.53;;;7.60;;
18711;SDS011;9485;49.386;8.674;2023-04-09T07:45:54;10.03;;;7.03;;
18711;SDS011;9485;49.386;8.674;2023-04-09T07:51:15;8.10;;;6.97;;
18711;SDS011;9485;49.386;8.674;2023-04-09T07:56:37;9.90;;;7.73;;
18711;SDS011;9485;49.386;8.674;2023-04-09T08:01:58;9.53;;;7.37;;
18711;SDS011;9485;49.386;8.674;2023-04-09T08:07:19;8.43;;;6.67;;
18711;SDS011;9485;49.386;8.674;2023-04-09T08:12:42;8.63;;;7.17;;
18711;SDS011;9485;49.386;8.674;2023-04-09T08:18:03;7.80;;;6.77;;
18711;SDS011;9485;49.386;8.674;2023-04-09T08:23:25;7.57;;;6.13;;
18711;SDS011;9485;49.386;8.674;2023-04-09T08:28:47;7.57;;;5.83;;
18711;SDS011;9485;49.386;8.674;2023-04-09T08:34:09;8.00;;;6.37;;
18711;SDS011;9485;49.386;8.674;2023-04-09T08:39:30;7.25;;;5.90;;
18711;SDS011;9485;49.386;8.674;2023-04-09T08:44:52;7.80;;;6.47;;
18711;SDS011;9485;49.386;8.674;2023-04-09T08:50:13;6.03;;;5.25;;
18711;SDS011;9485;49.386;8.674;2023-04-09T08:55:34;5.88;;;4.95;;
18711;SDS011;9485;49.386;8.674;2023-04-09T09:00:57;6.68;;;5.97;;
18711;SDS011;9485;49.386;8.674;2023-04-09T09:06:19;4.65;;;4.18;;
18711;SDS011;9485;49.386;8.674;2023-04-09T09:11:41;5.22;;;4.72;;
18711;SDS011;9485;49.386;8.674;2023-04-09T09:17:04;5.45;;;4.95;;
18711;SDS011;9485;49.386;8.674;2023-04-09T09:22:25;4.93;;;4.40;;
18711;SDS011;9485;49.386;8.674;2023-04-09T09:27:46;5.38;;;4.85;;
18711;SDS011;9485;49.386;8.674;2023-04-09T09:33:09;5.18;;;4.68;;
18711;SDS011;9485;49.386;8.674;2023-04-09T09:38:31;5.50;;;4.93;;
18711;SDS011;9485;49.386;8.674;2023-04-09T09:43:51;5.85;;;5.07;;
18711;SDS011;9485;49.386;8.674;2023-04-09T09:49:14;4.35;;;3.95;;
18711;SDS011;9485;49.386;8.674;2023-04-09T09:54:36;4.43;;;3.50;;
18711;SDS011;9485;49.386;8.674;2023-04-09T10:00:00;5.18;;;4.65;;
18711;SDS011;9485;49.386;8.674;2023-04-09T10:05:34;4.60;;;4.05;;
18711;SDS011;9485;49.386;8.674;2023-04-09T10:10:57;3.88;;;3.53;;
18711;SDS011;9485;49.386;8.674;2023-04-09T10:16:19;4.45;;;4.00;;
18711;SDS011;9485;49.386;8.674;2023-04-09T10:21:44;4.22;;;3.70;;
18711;SDS011;9485;49.386;8.674;2023-04-09T10:27:13;4.35;;;3.95;;
18711;SDS011;9485;49.386;8.674;2023-04-09T10:32:35;3.67;;;3.30;;
18711;SDS011;9485;49.386;8.674;2023-04-09T10:37:58;3.47;;;3.17;;
18711;SDS011;9485;49.386;8.674;2023-04-09T10:43:19;5.22;;;3.97;;
18711;SDS011;9485;49.386;8.674;2023-04-09T10:48:41;5.20;;;4.70;;
18711;SDS011;9485;49.386;8.674;2023-04-09T10:54:03;5.30;;;4.45;;
18711;SDS011;9485;49.386;8.674;2023-04-09T10:59:24;5.97;;;5.13;;
18711;SDS011;9485;49.386;8.674;2023-04-09T11:04:50;4.65;;;4.13;;
18711;SDS011;9485;49.386;8.674;2023-04-09T11:10:27;4.13;;;3.60;;
18711;SDS011;9485;49.386;8.674;2023-04-09T11:15:48;4.22;;;3.80;;
18711;SDS011;9485;49.386;8.674;2023-04-09T11:21:09;3.63;;;3.28;;
18711;SDS011;9485;49.386;8.674;2023-04-09T11:26:36;4.53;;;4.00;;
18711;SDS011;9485;49.386;8.674;2023-04-09T11:31:57;4.15;;;3.70;;
18711;SDS011;9485;49.386;8.674;2023-04-09T11:37:19;4.43;;;4.00;;
18711;SDS011;9485;49.386;8.674;2023-04-09T11:42:40;4.40;;;3.92;;
18711;SDS011;9485;49.386;8.674;2023-04-09T11:48:01;3.58;;;3.28;;
18711;SDS011;9485;49.386;8.674;2023-04-09T11:53:23;3.10;;;2.80;;
18711;SDS011;9485;49.386;8.674;2023-04-09T11:58:52;3.55;;;3.20;;
18711;SDS011;9485;49.386;8.674;2023-04-09T12:04:18;3.15;;;2.85;;
18711;SDS011;9485;49.386;8.674;2023-04-09T12:09:45;4.03;;;3.03;;
18711;SDS011;9485;49.386;8.674;2023-04-09T12:15:17;3.13;;;2.90;;
18711;SDS011;9485;49.386;8.674;2023-04-09T12:20:40;2.88;;;2.58;;
18711;SDS011;9485;49.386;8.674;2023-04-09T12:26:02;3.10;;;2.65;;
18711;SDS011;9485;49.386;8.674;2023-04-09T12:31:25;3.15;;;2.85;;
18711;SDS011;9485;49.386;8.674;2023-04-09T12:36:46;3.13;;;2.83;;
18711;SDS011;9485;49.386;8.674;2023-04-09T12:42:07;3.17;;;2.88;;
18711;SDS011;9485;49.386;8.674;2023-04-09T12:47:29;3.28;;;2.97;;
18711;SDS011;9485;49.386;8.674;2023-04-09T12:52:49;2.58;;;2.38;;
18711;SDS011;9485;49.386;8.674;2023-04-09T12:58:10;3.10;;;2.80;;
18711;SDS011;9485;49.386;8.674;2023-04-09T13:03:32;2.92;;;2.72;;
18711;SDS011;9485;49.386;8.674;2023-04-09T13:08:53;3.55;;;2.45;;
18711;SDS011;9485;49.386;8.674;2023-04-09T13:14:13;2.45;;;2.25;;
18711;SDS011;9485;49.386;8.674;2023-04-09T13:19:35;2.92;;;2.40;;
18711;SDS011;9485;49.386;8.674;2023-04-09T13:24:56;2.67;;;2.47;;
18711;SDS011;9485;49.386;8.674;2023-04-09T13:30:17;3.63;;;3.30;;
18711;SDS011;9485;49.386;8.674;2023-04-09T13:35:39;4.10;;;2.80;;
18711;SDS011;9485;49.386;8.674;2023-04-09T13:41:00;3.20;;;2.90;;
18711;SDS011;9485;49.386;8.674;2023-04-09T13:46:20;3.00;;;2.70;;
18711;SDS011;9485;49.386;8.674;2023-04-09T13:51:42;3.10;;;2.80;;
18711;SDS011;9485;49.386;8.674;2023-04-09T13:57:03;3.08;;;2.75;;
18711;SDS011;9485;49.386;8.674;2023-04-09T14:02:24;3.15;;;2.85;;
18711;SDS011;9485;49.386;8.674;2023-04-09T14:07:47;4.05;;;2.55;;
18711;SDS011;9485;49.386;8.674;2023-04-09T14:13:08;3.30;;;3.00;;
18711;SDS011;9485;49.386;8.674;2023-04-09T14:18:29;2.67;;;2.47;;
18711;SDS011;9485;49.386;8.674;2023-04-09T14:23:52;3.90;;;3.13;;
18711;SDS011;9485;49.386;8.674;2023-04-09T14:29:12;2.60;;;2.35;;
18711;SDS011;9485;49.386;8.674;2023-04-09T14:34:33;2.38;;;2.17;;
18711;SDS011;9485;49.386;8.674;2023-04-09T14:39:56;2.60;;;2.40;;
18711;SDS011;9485;49.386;8.674;2023-04-09T14:45:16;2.65;;;2.45;;
18711;SDS011;9485;49.386;8.674;2023-04-09T14:50:37;2.53;;;2.33;;
18711;SDS011;9485;49.386;8.674;2023-04-09T14:56:00;2.78;;;2.35;;
18711;SDS011;9485;49.386;8.674;2023-04-09T15:01:20;2.53;;;2.33;;
18711;SDS011;9485;49.386;8.674;2023-04-09T15:06:48;2.35;;;2.15;;
18711;SDS011;9485;49.386;8.674;2023-04-09T15:12:10;2.28;;;2.08;;
18711;SDS011;9485;49.386;8.674;2023-04-09T15:17:30;2.28;;;2.08;;
18711;SDS011;9485;49.386;8.674;2023-04-09T15:22:51;2.60;;;2.40;;
18711;SDS011;9485;49.386;8.674;2023-04-09T15:28:13;2.50;;;2.30;;
18711;SDS011;9485;49.386;8.674;2023-04-09T15:33:34;2.25;;;2.05;;
18711;SDS011;9485;49.386;8.674;2023-04-09T15:38:55;2.28;;;2.13;;
18711;SDS011;9485;49.386;8.674;2023-04-09T15:44:17;2.15;;;2.00;;
18711;SDS011;9485;49.386;8.674;2023-04-09T15:49:38;2.50;;;2.30;;
18711;SDS011;9485;49.386;8.674;2023-04-09T15:54:58;1.98;;;1.80;;
18711;SDS011;9485;49.386;8.674;2023-04-09T16:00:21;2.28;;;2.08;;
18711;SDS011;9485;49.386;8.674;2023-04-09T16:06:07;2.05;;;1.90;;
18711;SDS011;9485;49.386;8.674;2023-04-09T16:11:31;2.50;;;2.30;;
18711;SDS011;9485;49.386;8.674;2023-04-09T16:16:55;2.65;;;2.25;;
18711;SDS011;9485;49.386;8.674;2023-04-09T16:22:16;1.88;;;1.77;;
18711;SDS011;9485;49.386;8.674;2023-04-09T16:27:36;2.55;;;2.33;;
18711;SDS011;9485;49.386;8.674;2023-04-09T16:32:58;2.63;;;2.42;;
18711;SDS011;9485;49.386;8.674;2023-04-09T16:38:19;2.55;;;2.13;;
18711;SDS011;9485;49.386;8.674;2023-04-09T16:43:41;2.60;;;2.40;;
18711;SDS011;9485;49.386;8.674;2023-04-09T16:49:05;2.95;;;2.72;;
18711;SDS011;9485;49.386;8.674;2023-04-09T16:54:26;2.60;;;2.40;;
18711;SDS011;9485;49.386;8.674;2023-04-09T16:59:47;2.63;;;2.43;;
18711;SDS011;9485;49.386;8.674;2023-04-09T17:05:09;3.22;;;2.50;;
18711;SDS011;9485;49.386;8.674;2023-04-09T17:10:30;3.30;;;3.00;;
18711;SDS011;9485;49.386;8.674;2023-04-09T17:15:51;2.90;;;2.55;;
18711;SDS011;9485;49.386;8.674;2023-04-09T17:21:13;2.63;;;2.43;;
18711;SDS011;9485;49.386;8.674;2023-04-09T17:26:34;3.00;;;2.57;;
18711;SDS011;9485;49.386;8.674;2023-04-09T17:31:54;3.20;;;2.27;;
18711;SDS011;9485;49.386;8.674;2023-04-09T17:37:17;3.03;;;2.73;;
18711;SDS011;9485;49.386;8.674;2023-04-09T17:42:39;3.10;;;2.73;;
18711;SDS011;9485;49.386;8.674;2023-04-09T17:47:59;3.93;;;2.73;;
18711;SDS011;9485;49.386;8.674;2023-04-09T17:53:22;2.67;;;2.47;;
18711;SDS011;9485;49.386;8.674;2023-04-09T17:58:43;2.60;;;2.40;;
18711;SDS011;9485;49.386;8.674;2023-04-09T18:04:05;2.97;;;2.63;;
18711;SDS011;9485;49.386;8.674;2023-04-09T18:09:27;3.00;;;2.60;;
18711;SDS011;9485;49.386;8.674;2023-04-09T18:14:48;3.13;;;2.80;;
18711;SDS011;9485;49.386;8.674;2023-04-09T18:20:09;2.63;;;2.43;;
18711;SDS011;9485;49.386;8.674;2023-04-09T18:25:34;3.00;;;2.70;;
18711;SDS011;9485;49.386;8.674;2023-04-09T18:30:55;3.00;;;2.80;;
18711;SDS011;9485;49.386;8.674;2023-04-09T18:36:16;2.90;;;2.60;;
18711;SDS011;9485;49.386;8.674;2023-04-09T18:41:38;3.87;;;2.97;;
18711;SDS011;9485;49.386;8.674;2023-04-09T18:46:59;3.40;;;2.97;;
18711;SDS011;9485;49.386;8.674;2023-04-09T18:52:20;3.47;;;2.83;;
18711;SDS011;9485;49.386;8.674;2023-04-09T18:57:42;3.37;;;3.07;;
18711;SDS011;9485;49.386;8.674;2023-04-09T19:03:03;3.43;;;2.93;;
18711;SDS011;9485;49.386;8.674;2023-04-09T19:08:24;5.17;;;2.97;;
18711;SDS011;9485;49.386;8.674;2023-04-09T19:13:46;3.00;;;2.70;;
18711;SDS011;9485;49.386;8.674;2023-04-09T19:19:08;4.23;;;3.70;;
18711;SDS011;9485;49.386;8.674;2023-04-09T19:24:29;3.30;;;3.00;;
18711;SDS011;9485;49.386;8.674;2023-04-09T19:29:51;4.33;;;3.93;;
18711;SDS011;9485;49.386;8.674;2023-04-09T19:35:12;3.43;;;3.13;;
18711;SDS011;9485;49.386;8.674;2023-04-09T19:40:33;5.00;;;3.80;;
18711;SDS011;9485;49.386;8.674;2023-04-09T19:45:55;4.00;;;3.50;;
18711;SDS011;9485;49.386;8.674;2023-04-09T19:51:16;5.03;;;4.27;;
18711;SDS011;9485;49.386;8.674;2023-04-09T19:56:39;4.10;;;3.63;;
18711;SDS011;9485;49.386;8.674;2023-04-09T20:02:01;5.00;;;4.13;;
18711;SDS011;9485;49.386;8.674;2023-04-09T20:07:22;4.33;;;3.93;;
18711;SDS011;9485;49.386;8.674;2023-04-09T20:12:45;4.63;;;3.73;;
18711;SDS011;9485;49.386;8.674;2023-04-09T20:18:08;4.13;;;3.50;;
18711;SDS011;9485;49.386;8.674;2023-04-09T20:23:29;4.53;;;4.10;;
18711;SDS011;9485;49.386;8.674;2023-04-09T20:28:49;4.37;;;3.83;;
18711;SDS011;9485;49.386;8.674;2023-04-09T20:34:12;4.50;;;4.00;;
18711;SDS011;9485;49.386;8.674;2023-04-09T20:39:33;4.57;;;3.70;;
18711;SDS011;9485;49.386;8.674;2023-04-09T20:44:53;4.20;;;3.80;;
18711;SDS011;9485;49.386;8.674;2023-04-09T20:50:16;4.40;;;4.00;;
18711;SDS011;9485;49.386;8.674;2023-04-09T20:55:37;4.43;;;3.97;;
18711;SDS011;9485;49.386;8.674;2023-04-09T21:01:02;5.77;;;4.40;;
18711;SDS011;9485;49.386;8.674;2023-04-09T21:06:26;5.27;;;4.23;;
18711;SDS011;9485;49.386;8.674;2023-04-09T21:11:47;4.43;;;4.03;;
18711;SDS011;9485;49.386;8.674;2023-04-09T21:17:08;4.87;;;4.20;;
18711;SDS011;9485;49.386;8.674;2023-04-09T21:22:30;4.60;;;4.10;;
18711;SDS011;9485;49.386;8.674;2023-04-09T21:27:52;5.83;;;4.57;;
18711;SDS011;9485;49.386;8.674;2023-04-09T21:33:13;6.10;;;4.67;;
18711;SDS011;9485;49.386;8.674;2023-04-09T21:38:34;5.43;;;4.70;;
18711;SDS011;9485;49.386;8.674;2023-04-09T21:43:55;6.23;;;5.10;;
18711;SDS011;9485;49.386;8.674;2023-04-09T21:49:21;5.90;;;4.87;;
18711;SDS011;9485;49.386;8.674;2023-04-09T21:54:43;5.40;;;4.70;;
18711;SDS011;9485;49.386;8.674;2023-04-09T22:00:04;5.70;;;4.80;;
18711;SDS011;9485;49.386;8.674;2023-04-09T22:05:30;6.47;;;5.13;;
18711;SDS011;9485;49.386;8.674;2023-04-09T22:10:54;6.30;;;4.90;;
18711;SDS011;9485;49.386;8.674;2023-04-09T22:16:15;7.03;;;5.20;;
18711;SDS011;9485;49.386;8.674;2023-04-09T22:21:36;6.43;;;5.67;;
18711;SDS011;9485;49.386;8.674;2023-04-09T22:26:58;7.33;;;5.33;;
18711;SDS011;9485;49.386;8.674;2023-04-09T22:32:20;8.07;;;6.10;;
18711;SDS011;9485;49.386;8.674;2023-04-09T22:37:40;6.83;;;5.47;;
18711;SDS011;9485;49.386;8.674;2023-04-09T22:43:02;7.50;;;5.60;;
18711;SDS011;9485;49.386;8.674;2023-04-09T22:48:23;7.10;;;5.60;;
18711;SDS011;9485;49.386;8.674;2023-04-09T22:53:44;6.30;;;5.23;;
18711;SDS011;9485;49.386;8.674;2023-04-09T22:59:07;6.23;;;5.00;;
18711;SDS011;9485;49.386;8.674;2023-04-09T23:04:28;6.13;;;5.30;;
18711;SDS011;9485;49.386;8.674;2023-04-09T23:09:48;7.20;;;5.77;;
18711;SDS011;9485;49.386;8.674;2023-04-09T23:15:11;7.27;;;5.87;;
18711;SDS011;9485;49.386;8.674;2023-04-09T23:20:31;8.20;;;6.20;;
18711;SDS011;9485;49.386;8.674;2023-04-09T23:25:53;6.77;;;6.00;;
18711;SDS011;9485;49.386;8.674;2023-04-09T23:31:15;6.50;;;5.70;;
18711;SDS011;9485;49.386;8.674;2023-04-09T23:36:36;7.07;;;5.97;;
18711;SDS011;9485;49.386;8.674;2023-04-09T23:41:57;7.47;;;6.17;;
18711;SDS011;9485;49.386;8.674;2023-04-09T23:47:19;7.33;;;5.90;;
18711;SDS011;9485;49.386;8.674;2023-04-09T23:52:44;7.73;;;5.87;;
18711;SDS011;9485;49.386;8.674;2023-04-09T23:58:06;6.70;;;5.60;;
